sensor_id;sensor_type;location;lat;lon;timestamp;P1;durP1;ratioP1;P2;durP2;ratioP2
47804;SDS011;33568;45.286;9.900;2023-04-06T00:00:01;7.93;;;5.25;;
47804;SDS011;33568;45.286;9.900;2023-04-06T00:02:35;8.60;;;5.05;;
47804;SDS011;33568;45.286;9.900;2023-04-06T00:05:02;14.57;;;5.10;;
47804;SDS011;33568;45.286;9.900;2023-04-06T00:07:29;9.50;;;5.18;;
47804;SDS011;33568;45.286;9.900;2023-04-06T00:09:56;10.90;;;5.35;;
47804;SDS011;33568;45.286;9.900;2023-04-06T00:12:22;14.68;;;5.78;;
47804;SDS011;33568;45.286;9.900;2023-04-06T00:14:49;9.27;;;6.05;;
47804;SDS011;33568;45.286;9.900;2023-04-06T00:17:16;7.65;;;5.50;;
47804;SDS011;33568;45.286;9.900;2023-04-06T00:19:43;8.77;;;6.05;;
47804;SDS011;33568;45.286;9.900;2023-04-06T00:24:36;18.08;;;5.47;;
47804;SDS011;33568;45.286;9.900;2023-04-06T00:27:03;7.82;;;6.50;;
47804;SDS011;33568;45.286;9.900;2023-04-06T00:29:29;7.10;;;5.47;;
47804;SDS011;33568;45.286;9.900;2023-04-06T00:34:22;19.40;;;6.95;;
47804;SDS011;33568;45.286;9.900;2023-04-06T00:36:49;7.82;;;5.90;;
47804;SDS011;33568;45.286;9.900;2023-04-06T00:39:15;12.05;;;6.63;;
47804;SDS011;33568;45.286;9.900;2023-04-06T00:44:12;19.23;;;6.30;;
47804;SDS011;33568;45.286;9.900;2023-04-06T00:46:39;11.10;;;6.13;;
47804;SDS011;33568;45.286;9.900;2023-04-06T00:49:05;11.60;;;5.82;;
47804;SDS011;33568;45.286;9.900;2023-04-06T00:51:32;8.57;;;6.10;;
47804;SDS011;33568;45.286;9.900;2023-04-06T00:53:59;9.45;;;5.75;;
47804;SDS011;33568;45.286;9.900;2023-04-06T00:56:26;8.13;;;5.60;;
47804;SDS011;33568;45.286;9.900;2023-04-06T00:58:53;8.00;;;5.53;;
47804;SDS011;33568;45.286;9.900;2023-04-06T01:01:20;9.98;;;5.25;;
47804;SDS011;33568;45.286;9.900;2023-04-06T01:03:49;9.65;;;6.28;;
47804;SDS011;33568;45.286;9.900;2023-04-06T01:06:18;8.95;;;6.13;;
47804;SDS011;33568;45.286;9.900;2023-04-06T01:08:52;8.73;;;6.22;;
47804;SDS011;33568;45.286;9.900;2023-04-06T01:11:21;7.72;;;5.63;;
47804;SDS011;33568;45.286;9.900;2023-04-06T01:13:51;7.45;;;6.22;;
47804;SDS011;33568;45.286;9.900;2023-04-06T01:16:25;14.35;;;6.18;;
47804;SDS011;33568;45.286;9.900;2023-04-06T01:19:11;11.65;;;5.88;;
47804;SDS011;33568;45.286;9.900;2023-04-06T01:21:43;10.85;;;5.78;;
47804;SDS011;33568;45.286;9.900;2023-04-06T01:24:25;7.47;;;5.80;;
47804;SDS011;33568;45.286;9.900;2023-04-06T01:27:12;16.67;;;6.40;;
47804;SDS011;33568;45.286;9.900;2023-04-06T01:29:57;15.00;;;6.10;;
47804;SDS011;33568;45.286;9.900;2023-04-06T01:32:38;10.43;;;6.07;;
47804;SDS011;33568;45.286;9.900;2023-04-06T01:35:07;7.38;;;5.30;;
47804;SDS011;33568;45.286;9.900;2023-04-06T01:37:38;9.00;;;5.47;;
47804;SDS011;33568;45.286;9.900;2023-04-06T01:40:08;14.15;;;5.53;;
47804;SDS011;33568;45.286;9.900;2023-04-06T01:42:42;9.98;;;6.15;;
47804;SDS011;33568;45.286;9.900;2023-04-06T01:45:11;13.18;;;5.85;;
47804;SDS011;33568;45.286;9.900;2023-04-06T01:47:38;11.18;;;5.70;;
47804;SDS011;33568;45.286;9.900;2023-04-06T01:50:05;12.10;;;5.53;;
47804;SDS011;33568;45.286;9.900;2023-04-06T01:52:37;10.48;;;5.57;;
47804;SDS011;33568;45.286;9.900;2023-04-06T01:55:03;13.52;;;5.75;;
47804;SDS011;33568;45.286;9.900;2023-04-06T01:57:51;11.55;;;5.55;;
47804;SDS011;33568;45.286;9.900;2023-04-06T02:00:30;11.95;;;5.57;;
47804;SDS011;33568;45.286;9.900;2023-04-06T02:02:57;15.35;;;5.30;;
47804;SDS011;33568;45.286;9.900;2023-04-06T02:05:28;11.95;;;5.32;;
47804;SDS011;33568;45.286;9.900;2023-04-06T02:07:56;10.63;;;5.38;;
47804;SDS011;33568;45.286;9.900;2023-04-06T02:10:31;8.25;;;4.93;;
47804;SDS011;33568;45.286;9.900;2023-04-06T02:13:02;14.43;;;5.68;;
47804;SDS011;33568;45.286;9.900;2023-04-06T02:15:29;7.78;;;5.60;;
47804;SDS011;33568;45.286;9.900;2023-04-06T02:17:58;9.00;;;5.93;;
47804;SDS011;33568;45.286;9.900;2023-04-06T02:20:25;8.23;;;5.80;;
47804;SDS011;33568;45.286;9.900;2023-04-06T02:22:51;12.10;;;5.93;;
47804;SDS011;33568;45.286;9.900;2023-04-06T02:27:44;7.15;;;5.32;;
47804;SDS011;33568;45.286;9.900;2023-04-06T02:30:11;10.25;;;5.65;;
47804;SDS011;33568;45.286;9.900;2023-04-06T02:32:40;6.85;;;5.47;;
47804;SDS011;33568;45.286;9.900;2023-04-06T02:35:07;10.48;;;5.45;;
47804;SDS011;33568;45.286;9.900;2023-04-06T02:37:34;7.57;;;5.22;;
47804;SDS011;33568;45.286;9.900;2023-04-06T02:42:30;8.93;;;5.32;;
47804;SDS011;33568;45.286;9.900;2023-04-06T02:44:57;16.55;;;5.82;;
47804;SDS011;33568;45.286;9.900;2023-04-06T02:47:28;8.48;;;5.32;;
47804;SDS011;33568;45.286;9.900;2023-04-06T02:49:55;7.95;;;5.43;;
47804;SDS011;33568;45.286;9.900;2023-04-06T02:52:22;13.52;;;5.40;;
47804;SDS011;33568;45.286;9.900;2023-04-06T02:54:49;8.95;;;5.43;;
47804;SDS011;33568;45.286;9.900;2023-04-06T02:57:22;9.23;;;5.22;;
47804;SDS011;33568;45.286;9.900;2023-04-06T02:59:49;13.88;;;6.22;;
47804;SDS011;33568;45.286;9.900;2023-04-06T03:02:21;8.77;;;5.18;;
47804;SDS011;33568;45.286;9.900;2023-04-06T03:04:48;17.38;;;6.13;;
47804;SDS011;33568;45.286;9.900;2023-04-06T03:07:26;8.18;;;5.70;;
47804;SDS011;33568;45.286;9.900;2023-04-06T03:09:54;8.23;;;5.35;;
47804;SDS011;33568;45.286;9.900;2023-04-06T03:12:20;8.82;;;4.90;;
47804;SDS011;33568;45.286;9.900;2023-04-06T03:15:11;7.35;;;5.07;;
47804;SDS011;33568;45.286;9.900;2023-04-06T03:17:42;6.72;;;5.43;;
47804;SDS011;33568;45.286;9.900;2023-04-06T03:20:15;6.30;;;5.10;;
47804;SDS011;33568;45.286;9.900;2023-04-06T03:25:12;7.32;;;5.20;;
47804;SDS011;33568;45.286;9.900;2023-04-06T03:27:41;11.32;;;5.13;;
47804;SDS011;33568;45.286;9.900;2023-04-06T03:30:12;12.90;;;5.53;;
47804;SDS011;33568;45.286;9.900;2023-04-06T03:32:39;7.45;;;5.57;;
47804;SDS011;33568;45.286;9.900;2023-04-06T03:37:32;10.27;;;5.38;;
47804;SDS011;33568;45.286;9.900;2023-04-06T03:40:02;11.30;;;5.40;;
47804;SDS011;33568;45.286;9.900;2023-04-06T03:42:29;8.48;;;5.28;;
47804;SDS011;33568;45.286;9.900;2023-04-06T03:45:02;14.07;;;5.00;;
47804;SDS011;33568;45.286;9.900;2023-04-06T03:47:29;9.45;;;5.07;;
47804;SDS011;33568;45.286;9.900;2023-04-06T03:50:00;12.45;;;5.75;;
47804;SDS011;33568;45.286;9.900;2023-04-06T03:52:29;9.35;;;5.20;;
47804;SDS011;33568;45.286;9.900;2023-04-06T03:54:56;9.65;;;4.90;;
47804;SDS011;33568;45.286;9.900;2023-04-06T03:59:49;12.15;;;4.78;;
47804;SDS011;33568;45.286;9.900;2023-04-06T04:04:41;14.90;;;5.00;;
47804;SDS011;33568;45.286;9.900;2023-04-06T04:07:08;8.73;;;4.93;;
47804;SDS011;33568;45.286;9.900;2023-04-06T04:12:02;7.60;;;5.28;;
47804;SDS011;33568;45.286;9.900;2023-04-06T04:14:30;7.05;;;5.60;;
47804;SDS011;33568;45.286;9.900;2023-04-06T04:19:23;8.20;;;5.50;;
47804;SDS011;33568;45.286;9.900;2023-04-06T04:24:23;14.30;;;5.85;;
47804;SDS011;33568;45.286;9.900;2023-04-06T04:26:50;11.15;;;6.10;;
47804;SDS011;33568;45.286;9.900;2023-04-06T04:29:17;11.75;;;6.55;;
47804;SDS011;33568;45.286;9.900;2023-04-06T04:31:47;9.80;;;5.82;;
47804;SDS011;33568;45.286;9.900;2023-04-06T04:34:16;9.52;;;6.22;;
47804;SDS011;33568;45.286;9.900;2023-04-06T04:36:46;8.38;;;5.88;;
47804;SDS011;33568;45.286;9.900;2023-04-06T04:39:20;9.13;;;6.00;;
47804;SDS011;33568;45.286;9.900;2023-04-06T04:41:55;10.18;;;6.57;;
47804;SDS011;33568;45.286;9.900;2023-04-06T04:46:49;11.80;;;7.22;;
47804;SDS011;33568;45.286;9.900;2023-04-06T04:49:19;9.32;;;6.43;;
47804;SDS011;33568;45.286;9.900;2023-04-06T04:51:49;14.63;;;7.53;;
47804;SDS011;33568;45.286;9.900;2023-04-06T04:54:32;11.65;;;7.38;;
47804;SDS011;33568;45.286;9.900;2023-04-06T04:59:37;15.80;;;7.93;;
47804;SDS011;33568;45.286;9.900;2023-04-06T05:02:15;12.63;;;8.68;;
47804;SDS011;33568;45.286;9.900;2023-04-06T05:04:52;10.80;;;7.30;;
47804;SDS011;33568;45.286;9.900;2023-04-06T05:07:22;15.85;;;8.77;;
47804;SDS011;33568;45.286;9.900;2023-04-06T05:09:51;10.25;;;7.35;;
47804;SDS011;33568;45.286;9.900;2023-04-06T05:12:18;15.20;;;8.70;;
47804;SDS011;33568;45.286;9.900;2023-04-06T05:14:59;12.18;;;7.88;;
47804;SDS011;33568;45.286;9.900;2023-04-06T05:17:26;13.88;;;8.80;;
47804;SDS011;33568;45.286;9.900;2023-04-06T05:19:54;15.02;;;8.50;;
47804;SDS011;33568;45.286;9.900;2023-04-06T05:22:24;17.40;;;9.57;;
47804;SDS011;33568;45.286;9.900;2023-04-06T05:25:01;21.92;;;8.32;;
47804;SDS011;33568;45.286;9.900;2023-04-06T05:27:30;14.23;;;9.00;;
47804;SDS011;33568;45.286;9.900;2023-04-06T05:29:59;14.23;;;8.82;;
47804;SDS011;33568;45.286;9.900;2023-04-06T05:32:28;17.50;;;8.63;;
47804;SDS011;33568;45.286;9.900;2023-04-06T05:34:55;15.15;;;9.05;;
47804;SDS011;33568;45.286;9.900;2023-04-06T05:37:22;20.05;;;9.82;;
47804;SDS011;33568;45.286;9.900;2023-04-06T05:39:49;16.55;;;9.40;;
47804;SDS011;33568;45.286;9.900;2023-04-06T05:42:16;12.68;;;8.77;;
47804;SDS011;33568;45.286;9.900;2023-04-06T05:44:51;15.38;;;9.07;;
47804;SDS011;33568;45.286;9.900;2023-04-06T05:47:18;11.70;;;8.10;;
47804;SDS011;33568;45.286;9.900;2023-04-06T05:49:49;20.55;;;9.30;;
47804;SDS011;33568;45.286;9.900;2023-04-06T05:52:31;23.92;;;11.27;;
47804;SDS011;33568;45.286;9.900;2023-04-06T05:54:58;19.88;;;10.68;;
47804;SDS011;33568;45.286;9.900;2023-04-06T05:57:25;11.88;;;8.80;;
47804;SDS011;33568;45.286;9.900;2023-04-06T05:59:53;15.13;;;9.45;;
47804;SDS011;33568;45.286;9.900;2023-04-06T06:02:23;16.73;;;9.38;;
47804;SDS011;33568;45.286;9.900;2023-04-06T06:04:51;18.35;;;10.02;;
47804;SDS011;33568;45.286;9.900;2023-04-06T06:07:19;18.85;;;9.30;;
47804;SDS011;33568;45.286;9.900;2023-04-06T06:12:29;19.55;;;11.20;;
47804;SDS011;33568;45.286;9.900;2023-04-06T06:14:56;15.07;;;8.80;;
47804;SDS011;33568;45.286;9.900;2023-04-06T06:17:24;18.33;;;8.68;;
47804;SDS011;33568;45.286;9.900;2023-04-06T06:22:17;16.23;;;9.27;;
47804;SDS011;33568;45.286;9.900;2023-04-06T06:24:46;20.73;;;9.35;;
47804;SDS011;33568;45.286;9.900;2023-04-06T06:27:14;16.60;;;9.55;;
47804;SDS011;33568;45.286;9.900;2023-04-06T06:29:41;21.52;;;9.27;;
47804;SDS011;33568;45.286;9.900;2023-04-06T06:32:08;22.52;;;10.38;;
47804;SDS011;33568;45.286;9.900;2023-04-06T06:34:36;28.30;;;10.30;;
47804;SDS011;33568;45.286;9.900;2023-04-06T06:37:05;26.08;;;10.05;;
47804;SDS011;33568;45.286;9.900;2023-04-06T06:39:33;22.95;;;9.10;;
47804;SDS011;33568;45.286;9.900;2023-04-06T06:42:00;24.48;;;9.90;;
47804;SDS011;33568;45.286;9.900;2023-04-06T06:44:44;29.27;;;8.90;;
47804;SDS011;33568;45.286;9.900;2023-04-06T06:47:11;24.05;;;8.80;;
47804;SDS011;33568;45.286;9.900;2023-04-06T06:49:38;20.77;;;8.88;;
47804;SDS011;33568;45.286;9.900;2023-04-06T06:52:04;16.23;;;8.93;;
47804;SDS011;33568;45.286;9.900;2023-04-06T06:56:57;17.48;;;8.50;;
47804;SDS011;33568;45.286;9.900;2023-04-06T06:59:25;20.13;;;8.68;;
47804;SDS011;33568;45.286;9.900;2023-04-06T07:01:52;16.45;;;8.82;;
47804;SDS011;33568;45.286;9.900;2023-04-06T07:04:19;12.50;;;7.95;;
47804;SDS011;33568;45.286;9.900;2023-04-06T07:06:46;16.88;;;8.40;;
47804;SDS011;33568;45.286;9.900;2023-04-06T07:11:39;15.98;;;7.85;;
47804;SDS011;33568;45.286;9.900;2023-04-06T07:16:32;15.15;;;7.03;;
47804;SDS011;33568;45.286;9.900;2023-04-06T07:21:25;16.38;;;7.38;;
47804;SDS011;33568;45.286;9.900;2023-04-06T07:23:52;11.68;;;7.22;;
47804;SDS011;33568;45.286;9.900;2023-04-06T07:26:19;11.77;;;6.88;;
47804;SDS011;33568;45.286;9.900;2023-04-06T07:28:45;15.43;;;6.93;;
47804;SDS011;33568;45.286;9.900;2023-04-06T07:31:14;12.30;;;7.10;;
47804;SDS011;33568;45.286;9.900;2023-04-06T07:33:40;13.38;;;6.40;;
47804;SDS011;33568;45.286;9.900;2023-04-06T07:36:07;17.48;;;6.50;;
47804;SDS011;33568;45.286;9.900;2023-04-06T07:38:34;9.48;;;6.03;;
47804;SDS011;33568;45.286;9.900;2023-04-06T07:41:01;8.98;;;5.25;;
47804;SDS011;33568;45.286;9.900;2023-04-06T07:43:30;9.07;;;5.28;;
47804;SDS011;33568;45.286;9.900;2023-04-06T07:45:57;8.13;;;5.30;;
47804;SDS011;33568;45.286;9.900;2023-04-06T07:48:26;9.52;;;5.55;;
47804;SDS011;33568;45.286;9.900;2023-04-06T07:50:59;9.25;;;5.78;;
47804;SDS011;33568;45.286;9.900;2023-04-06T07:53:27;9.77;;;6.65;;
47804;SDS011;33568;45.286;9.900;2023-04-06T07:58:21;11.20;;;6.30;;
47804;SDS011;33568;45.286;9.900;2023-04-06T08:00:48;7.55;;;5.85;;
47804;SDS011;33568;45.286;9.900;2023-04-06T08:08:08;9.88;;;5.28;;
47804;SDS011;33568;45.286;9.900;2023-04-06T08:10:35;14.60;;;5.20;;
47804;SDS011;33568;45.286;9.900;2023-04-06T08:15:28;11.60;;;5.63;;
47804;SDS011;33568;45.286;9.900;2023-04-06T08:17:54;7.38;;;4.90;;
47804;SDS011;33568;45.286;9.900;2023-04-06T08:20:22;8.90;;;4.90;;
47804;SDS011;33568;45.286;9.900;2023-04-06T08:22:49;7.22;;;4.93;;
47804;SDS011;33568;45.286;9.900;2023-04-06T08:25:16;10.10;;;5.03;;
47804;SDS011;33568;45.286;9.900;2023-04-06T08:27:42;12.13;;;5.40;;
47804;SDS011;33568;45.286;9.900;2023-04-06T08:30:09;10.18;;;4.80;;
47804;SDS011;33568;45.286;9.900;2023-04-06T08:32:35;17.23;;;6.32;;
47804;SDS011;33568;45.286;9.900;2023-04-06T08:37:28;8.27;;;4.40;;
47804;SDS011;33568;45.286;9.900;2023-04-06T08:39:55;10.48;;;4.90;;
47804;SDS011;33568;45.286;9.900;2023-04-06T08:42:24;20.98;;;5.22;;
47804;SDS011;33568;45.286;9.900;2023-04-06T08:44:52;8.15;;;5.43;;
47804;SDS011;33568;45.286;9.900;2023-04-06T08:47:19;12.98;;;5.15;;
47804;SDS011;33568;45.286;9.900;2023-04-06T08:49:45;13.32;;;4.63;;
47804;SDS011;33568;45.286;9.900;2023-04-06T08:52:12;15.48;;;4.57;;
47804;SDS011;33568;45.286;9.900;2023-04-06T08:54:40;9.85;;;4.30;;
47804;SDS011;33568;45.286;9.900;2023-04-06T08:57:07;12.50;;;5.13;;
47804;SDS011;33568;45.286;9.900;2023-04-06T08:59:34;7.60;;;3.80;;
47804;SDS011;33568;45.286;9.900;2023-04-06T09:02:03;13.07;;;4.63;;
47804;SDS011;33568;45.286;9.900;2023-04-06T09:04:33;7.55;;;3.72;;
47804;SDS011;33568;45.286;9.900;2023-04-06T09:07:01;9.45;;;3.95;;
47804;SDS011;33568;45.286;9.900;2023-04-06T09:09:27;9.77;;;4.20;;
47804;SDS011;33568;45.286;9.900;2023-04-06T09:14:37;13.25;;;3.95;;
47804;SDS011;33568;45.286;9.900;2023-04-06T09:17:04;11.48;;;3.83;;
47804;SDS011;33568;45.286;9.900;2023-04-06T09:19:31;6.40;;;3.30;;
47804;SDS011;33568;45.286;9.900;2023-04-06T09:24:43;11.30;;;3.92;;
47804;SDS011;33568;45.286;9.900;2023-04-06T09:27:14;6.93;;;4.10;;
47804;SDS011;33568;45.286;9.900;2023-04-06T09:29:42;7.93;;;4.10;;
47804;SDS011;33568;45.286;9.900;2023-04-06T09:32:11;8.80;;;3.83;;
47804;SDS011;33568;45.286;9.900;2023-04-06T09:34:38;5.30;;;3.53;;
47804;SDS011;33568;45.286;9.900;2023-04-06T09:37:14;7.70;;;3.78;;
47804;SDS011;33568;45.286;9.900;2023-04-06T09:39:42;6.35;;;4.57;;
47804;SDS011;33568;45.286;9.900;2023-04-06T09:42:09;5.93;;;3.78;;
47804;SDS011;33568;45.286;9.900;2023-04-06T09:44:35;7.13;;;4.00;;
47804;SDS011;33568;45.286;9.900;2023-04-06T09:49:31;5.63;;;3.72;;
47804;SDS011;33568;45.286;9.900;2023-04-06T09:52:04;5.22;;;3.50;;
47804;SDS011;33568;45.286;9.900;2023-04-06T09:54:34;3.80;;;3.47;;
47804;SDS011;33568;45.286;9.900;2023-04-06T09:57:11;6.75;;;3.88;;
47804;SDS011;33568;45.286;9.900;2023-04-06T09:59:58;7.45;;;4.00;;
47804;SDS011;33568;45.286;9.900;2023-04-06T10:02:36;13.18;;;3.97;;
47804;SDS011;33568;45.286;9.900;2023-04-06T10:07:50;5.90;;;4.45;;
47804;SDS011;33568;45.286;9.900;2023-04-06T10:10:20;9.52;;;5.10;;
47804;SDS011;33568;45.286;9.900;2023-04-06T10:12:47;9.63;;;5.60;;
47804;SDS011;33568;45.286;9.900;2023-04-06T10:15:15;5.97;;;4.78;;
47804;SDS011;33568;45.286;9.900;2023-04-06T10:17:42;8.20;;;5.15;;
47804;SDS011;33568;45.286;9.900;2023-04-06T10:20:17;9.10;;;6.18;;
47804;SDS011;33568;45.286;9.900;2023-04-06T10:23:16;7.40;;;5.32;;
47804;SDS011;33568;45.286;9.900;2023-04-06T10:25:53;9.85;;;5.43;;
47804;SDS011;33568;45.286;9.900;2023-04-06T10:28:20;9.35;;;5.75;;
47804;SDS011;33568;45.286;9.900;2023-04-06T10:30:47;7.53;;;5.80;;
47804;SDS011;33568;45.286;9.900;2023-04-06T10:33:14;5.28;;;4.70;;
47804;SDS011;33568;45.286;9.900;2023-04-06T10:35:42;6.53;;;4.88;;
47804;SDS011;33568;45.286;9.900;2023-04-06T10:38:08;6.30;;;5.20;;
47804;SDS011;33568;45.286;9.900;2023-04-06T10:40:36;9.27;;;5.15;;
47804;SDS011;33568;45.286;9.900;2023-04-06T10:43:08;8.23;;;6.10;;
47804;SDS011;33568;45.286;9.900;2023-04-06T10:45:40;7.85;;;5.93;;
47804;SDS011;33568;45.286;9.900;2023-04-06T10:48:18;7.10;;;5.47;;
47804;SDS011;33568;45.286;9.900;2023-04-06T10:50:46;8.50;;;5.43;;
47804;SDS011;33568;45.286;9.900;2023-04-06T10:56:10;8.60;;;6.43;;
47804;SDS011;33568;45.286;9.900;2023-04-06T10:58:38;11.77;;;6.47;;
47804;SDS011;33568;45.286;9.900;2023-04-06T11:01:10;9.02;;;6.47;;
47804;SDS011;33568;45.286;9.900;2023-04-06T11:03:44;20.38;;;8.98;;
47804;SDS011;33568;45.286;9.900;2023-04-06T11:06:17;10.98;;;5.82;;
47804;SDS011;33568;45.286;9.900;2023-04-06T11:08:51;8.63;;;5.75;;
47804;SDS011;33568;45.286;9.900;2023-04-06T11:11:19;9.02;;;6.35;;
47804;SDS011;33568;45.286;9.900;2023-04-06T11:13:56;13.55;;;6.10;;
47804;SDS011;33568;45.286;9.900;2023-04-06T11:16:27;12.40;;;6.43;;
47804;SDS011;33568;45.286;9.900;2023-04-06T11:19:00;9.57;;;5.90;;
47804;SDS011;33568;45.286;9.900;2023-04-06T11:21:35;14.10;;;5.75;;
47804;SDS011;33568;45.286;9.900;2023-04-06T11:26:44;8.47;;;5.57;;
47804;SDS011;33568;45.286;9.900;2023-04-06T11:29:18;12.48;;;6.00;;
47804;SDS011;33568;45.286;9.900;2023-04-06T11:34:20;11.38;;;6.95;;
47804;SDS011;33568;45.286;9.900;2023-04-06T11:36:49;10.77;;;6.78;;
47804;SDS011;33568;45.286;9.900;2023-04-06T11:39:23;11.95;;;6.78;;
47804;SDS011;33568;45.286;9.900;2023-04-06T11:41:59;10.65;;;6.20;;
47804;SDS011;33568;45.286;9.900;2023-04-06T11:44:34;16.17;;;7.68;;
47804;SDS011;33568;45.286;9.900;2023-04-06T11:47:02;14.65;;;6.20;;
47804;SDS011;33568;45.286;9.900;2023-04-06T11:49:30;9.55;;;6.82;;
47804;SDS011;33568;45.286;9.900;2023-04-06T11:51:58;8.13;;;6.13;;
47804;SDS011;33568;45.286;9.900;2023-04-06T11:54:35;12.07;;;6.45;;
47804;SDS011;33568;45.286;9.900;2023-04-06T11:57:04;11.52;;;6.50;;
47804;SDS011;33568;45.286;9.900;2023-04-06T11:59:31;8.57;;;6.00;;
47804;SDS011;33568;45.286;9.900;2023-04-06T12:01:58;14.48;;;5.88;;
47804;SDS011;33568;45.286;9.900;2023-04-06T12:04:25;7.82;;;6.10;;
47804;SDS011;33568;45.286;9.900;2023-04-06T12:06:52;13.52;;;6.05;;
47804;SDS011;33568;45.286;9.900;2023-04-06T12:09:18;9.88;;;5.63;;
47804;SDS011;33568;45.286;9.900;2023-04-06T12:11:45;9.80;;;6.50;;
47804;SDS011;33568;45.286;9.900;2023-04-06T12:14:12;16.67;;;7.80;;
47804;SDS011;33568;45.286;9.900;2023-04-06T12:16:39;14.10;;;7.85;;
47804;SDS011;33568;45.286;9.900;2023-04-06T12:19:06;9.80;;;6.97;;
47804;SDS011;33568;45.286;9.900;2023-04-06T12:21:33;7.35;;;6.55;;
47804;SDS011;33568;45.286;9.900;2023-04-06T12:24:03;15.60;;;8.95;;
47804;SDS011;33568;45.286;9.900;2023-04-06T12:26:30;12.50;;;6.65;;
47804;SDS011;33568;45.286;9.900;2023-04-06T12:28:57;11.43;;;6.90;;
47804;SDS011;33568;45.286;9.900;2023-04-06T12:31:30;16.25;;;6.75;;
47804;SDS011;33568;45.286;9.900;2023-04-06T12:33:57;7.78;;;6.43;;
47804;SDS011;33568;45.286;9.900;2023-04-06T12:36:23;11.43;;;5.53;;
47804;SDS011;33568;45.286;9.900;2023-04-06T12:38:50;13.57;;;6.53;;
47804;SDS011;33568;45.286;9.900;2023-04-06T12:41:17;11.75;;;5.40;;
47804;SDS011;33568;45.286;9.900;2023-04-06T12:43:44;15.95;;;6.68;;
47804;SDS011;33568;45.286;9.900;2023-04-06T12:46:11;8.60;;;6.00;;
47804;SDS011;33568;45.286;9.900;2023-04-06T12:48:38;13.05;;;6.30;;
47804;SDS011;33568;45.286;9.900;2023-04-06T12:51:05;11.43;;;6.47;;
47804;SDS011;33568;45.286;9.900;2023-04-06T12:53:32;12.75;;;7.10;;
47804;SDS011;33568;45.286;9.900;2023-04-06T12:56:00;11.95;;;6.70;;
47804;SDS011;33568;45.286;9.900;2023-04-06T12:58:28;10.38;;;5.90;;
47804;SDS011;33568;45.286;9.900;2023-04-06T13:00:55;16.50;;;6.63;;
47804;SDS011;33568;45.286;9.900;2023-04-06T13:03:28;8.88;;;6.75;;
47804;SDS011;33568;45.286;9.900;2023-04-06T13:05:55;9.63;;;6.22;;
47804;SDS011;33568;45.286;9.900;2023-04-06T13:08:22;8.40;;;6.40;;
47804;SDS011;33568;45.286;9.900;2023-04-06T13:10:49;8.63;;;6.18;;
47804;SDS011;33568;45.286;9.900;2023-04-06T13:13:18;11.35;;;6.40;;
47804;SDS011;33568;45.286;9.900;2023-04-06T13:18:25;10.32;;;6.25;;
47804;SDS011;33568;45.286;9.900;2023-04-06T13:20:52;6.75;;;5.85;;
47804;SDS011;33568;45.286;9.900;2023-04-06T13:23:18;15.02;;;9.07;;
47804;SDS011;33568;45.286;9.900;2023-04-06T13:25:45;14.63;;;6.15;;
47804;SDS011;33568;45.286;9.900;2023-04-06T13:28:11;17.58;;;7.15;;
47804;SDS011;33568;45.286;9.900;2023-04-06T13:30:38;9.65;;;6.15;;
47804;SDS011;33568;45.286;9.900;2023-04-06T13:33:04;10.63;;;6.30;;
47804;SDS011;33568;45.286;9.900;2023-04-06T13:35:32;9.85;;;7.05;;
47804;SDS011;33568;45.286;9.900;2023-04-06T13:37:58;11.32;;;6.25;;
47804;SDS011;33568;45.286;9.900;2023-04-06T13:40:25;7.43;;;6.13;;
47804;SDS011;33568;45.286;9.900;2023-04-06T13:42:51;17.90;;;5.82;;
47804;SDS011;33568;45.286;9.900;2023-04-06T13:45:18;10.30;;;6.10;;
47804;SDS011;33568;45.286;9.900;2023-04-06T13:47:44;10.48;;;6.30;;
47804;SDS011;33568;45.286;9.900;2023-04-06T13:50:11;8.30;;;5.93;;
47804;SDS011;33568;45.286;9.900;2023-04-06T13:52:37;13.50;;;5.97;;
47804;SDS011;33568;45.286;9.900;2023-04-06T13:55:04;8.13;;;6.53;;
47804;SDS011;33568;45.286;9.900;2023-04-06T13:57:31;8.00;;;6.60;;
47804;SDS011;33568;45.286;9.900;2023-04-06T13:59:57;6.97;;;5.57;;
47804;SDS011;33568;45.286;9.900;2023-04-06T14:02:24;10.07;;;6.10;;
47804;SDS011;33568;45.286;9.900;2023-04-06T14:04:53;12.70;;;6.15;;
47804;SDS011;33568;45.286;9.900;2023-04-06T14:07:20;9.60;;;6.43;;
47804;SDS011;33568;45.286;9.900;2023-04-06T14:09:47;10.18;;;6.45;;
47804;SDS011;33568;45.286;9.900;2023-04-06T14:12:14;7.68;;;6.65;;
47804;SDS011;33568;45.286;9.900;2023-04-06T14:17:06;10.25;;;6.55;;
47804;SDS011;33568;45.286;9.900;2023-04-06T14:22:00;8.57;;;5.88;;
47804;SDS011;33568;45.286;9.900;2023-04-06T14:24:26;7.10;;;6.20;;
47804;SDS011;33568;45.286;9.900;2023-04-06T14:26:53;11.90;;;5.95;;
47804;SDS011;33568;45.286;9.900;2023-04-06T14:31:46;10.93;;;6.00;;
47804;SDS011;33568;45.286;9.900;2023-04-06T14:34:14;11.95;;;6.53;;
47804;SDS011;33568;45.286;9.900;2023-04-06T14:36:42;9.32;;;7.30;;
47804;SDS011;33568;45.286;9.900;2023-04-06T14:39:09;9.73;;;7.38;;
47804;SDS011;33568;45.286;9.900;2023-04-06T14:41:35;8.00;;;6.30;;
47804;SDS011;33568;45.286;9.900;2023-04-06T14:44:02;8.82;;;6.07;;
47804;SDS011;33568;45.286;9.900;2023-04-06T14:46:29;11.50;;;7.10;;
47804;SDS011;33568;45.286;9.900;2023-04-06T14:48:56;9.52;;;6.57;;
47804;SDS011;33568;45.286;9.900;2023-04-06T14:51:26;8.48;;;6.45;;
47804;SDS011;33568;45.286;9.900;2023-04-06T14:53:53;19.85;;;7.47;;
47804;SDS011;33568;45.286;9.900;2023-04-06T14:56:21;9.57;;;6.75;;
47804;SDS011;33568;45.286;9.900;2023-04-06T14:58:47;12.43;;;6.57;;
47804;SDS011;33568;45.286;9.900;2023-04-06T15:01:17;15.63;;;7.38;;
47804;SDS011;33568;45.286;9.900;2023-04-06T15:03:44;15.02;;;6.85;;
47804;SDS011;33568;45.286;9.900;2023-04-06T15:06:11;12.88;;;7.60;;
47804;SDS011;33568;45.286;9.900;2023-04-06T15:08:41;11.35;;;7.90;;
47804;SDS011;33568;45.286;9.900;2023-04-06T15:11:08;10.07;;;6.47;;
47804;SDS011;33568;45.286;9.900;2023-04-06T15:13:35;12.05;;;7.95;;
47804;SDS011;33568;45.286;9.900;2023-04-06T15:16:02;9.73;;;7.30;;
47804;SDS011;33568;45.286;9.900;2023-04-06T15:18:29;12.38;;;6.72;;
47804;SDS011;33568;45.286;9.900;2023-04-06T15:20:56;10.05;;;7.07;;
47804;SDS011;33568;45.286;9.900;2023-04-06T15:23:22;11.82;;;8.63;;
47804;SDS011;33568;45.286;9.900;2023-04-06T15:25:49;15.57;;;8.55;;
47804;SDS011;33568;45.286;9.900;2023-04-06T15:28:15;10.50;;;7.72;;
47804;SDS011;33568;45.286;9.900;2023-04-06T15:30:42;18.42;;;8.40;;
47804;SDS011;33568;45.286;9.900;2023-04-06T15:33:08;18.58;;;8.95;;
47804;SDS011;33568;45.286;9.900;2023-04-06T15:35:35;8.88;;;7.60;;
47804;SDS011;33568;45.286;9.900;2023-04-06T15:38:06;11.82;;;7.78;;
47804;SDS011;33568;45.286;9.900;2023-04-06T15:40:33;112.82;;;14.02;;
47804;SDS011;33568;45.286;9.900;2023-04-06T15:43:00;14.98;;;9.50;;
47804;SDS011;33568;45.286;9.900;2023-04-06T15:47:52;12.40;;;8.20;;
47804;SDS011;33568;45.286;9.900;2023-04-06T15:52:45;9.40;;;7.78;;
47804;SDS011;33568;45.286;9.900;2023-04-06T15:55:12;11.10;;;8.25;;
47804;SDS011;33568;45.286;9.900;2023-04-06T15:57:39;19.05;;;7.95;;
47804;SDS011;33568;45.286;9.900;2023-04-06T16:00:06;13.95;;;7.82;;
47804;SDS011;33568;45.286;9.900;2023-04-06T16:02:35;13.85;;;8.85;;
47804;SDS011;33568;45.286;9.900;2023-04-06T16:05:01;12.25;;;8.70;;
47804;SDS011;33568;45.286;9.900;2023-04-06T16:07:29;13.70;;;8.65;;
47804;SDS011;33568;45.286;9.900;2023-04-06T16:09:57;14.02;;;9.10;;
47804;SDS011;33568;45.286;9.900;2023-04-06T16:12:24;10.32;;;8.60;;
47804;SDS011;33568;45.286;9.900;2023-04-06T16:14:50;12.52;;;8.15;;
47804;SDS011;33568;45.286;9.900;2023-04-06T16:17:17;13.20;;;8.73;;
47804;SDS011;33568;45.286;9.900;2023-04-06T16:19:43;25.42;;;11.23;;
47804;SDS011;33568;45.286;9.900;2023-04-06T16:22:10;9.75;;;8.65;;
47804;SDS011;33568;45.286;9.900;2023-04-06T16:24:37;13.68;;;8.82;;